SADFSADQ

Guest
Details From SADF - San Fernando
To SADQ - Quilmes
Flight Number -
Tags Generated
Created
Modified
Stats Distance 23 nm / 42 km
Max Altitude 0 ft / 0 m
Waypoints 2
Social Downloads 1
Likes 0
Share VATSIM

Download

Looking for another format? Having issues loading an existing format? Contact us
Advertisement - Login to hide

Notes

Generated

Route

SADF SADQ

ID Type Via Altitude Latitude Longitude Leg Dist Tot Dist Heading (true) Name
O SADF APT - 0 ft / 0 m -34.45986˚ -58.59704˚ - 0 nm - -
O SADQ APT - 0 ft / 0 m -34.70113˚ -58.24534˚ 22 nm 22 nm 130° / 130° -

Altitude Profile

Advertisement - Login to hide

SADF

Details ICAO SADF
Name San Fernando
Region Argentina
Timezone America/Argentina/Buenos_Aires (UTC-3.0)
Stats Elevation 10 ft / 3 m (AMSL)
Location -34.454044° -58.590226°
Runways 1
Magnetic Variation 8.893° W

METAR

SADF 162000Z 36012KT 9999 FEW045TCU SCT100 27/19 Q0999

Decode

TAF

TAF TAF SADF 161700Z 1618/1718 34010KT 7000 -TSRA SCT025 FEW040CB OVC050 TX28/1621Z TN18/1709Z BECMG 1619/1621 29010KT 9999 FEW040TCU BECMG 1701/1703 20020G40KT 1500 +TSRA BKN020 FEW040CB OVC050 TEMPO 1706/1711 18010KT 8000 RA SCT020 OVC050 BECMG 1713/1715 16010KT 9999 SCT030SAEZ 161700Z 1618/1718 34020KT 9999 FEW040TCU SCT100 TX35/1718Z TN19/1709Z BECMG 1700/1703 27015G30KT 1000 +TSRA BKN020 FEW040CB OVC040 BECMG 1706/17pT 8000 -RA OVC040 BECMG 1710/1712 20015KT 9999 SCT025 BECMG 1715/1716 CAVOK

Decode

Departure Runways

ID Width Length Bearing (true) Bearing (mag) Surface Threshold Offset Overrun Length
05 131 ft / 40 m 5,904 ft / 1,800 m 44.03° 52.92° Asphalt 0 ft / 0 m 0 ft / 0 m
23 131 ft / 40 m 5,904 ft / 1,800 m 224.02° 232.91° Asphalt 899 ft / 274 m 0 ft / 0 m

SADQ

Details ICAO SADQ
Name Quilmes
Region Argentina
Timezone America/Argentina/Buenos_Aires (UTC-3.0)
Stats Elevation 7 ft / 2 m (AMSL)
Location -34.706710° -58.244509°
Runways 1
Magnetic Variation 9.042° W

METAR

Not found

TAF

Not found

Destination Runways

ID Width Length Bearing (true) Bearing (mag) Surface Threshold Offset Overrun Length
18 121 ft / 37 m 4,101 ft / 1,250 m 173.00° 182.04° Dirt 305 ft / 93 m 0 ft / 0 m
36 121 ft / 37 m 4,101 ft / 1,250 m 353.00° 2.04° Dirt 479 ft / 146 m 0 ft / 0 m

Popular Alternatives